Airport ID:CNV8
Update Time (UTC):19/08/2019 07:35
Wind Speed (Knots):4.9591839999999996
Wind Direction (Magnetic):230
Temperature (°C):21
Dew Point (°C):20.9
Humidity (%):98.3
Altimeter (inHg):29.86
Density Altitude (Feet):02000
Visibility (Miles):***
Clouds (Hundreds of feet):***
Present Weather:***
METAR:METAR CNV8 190730Z AUTO 00000KT /////NDV ////// 21/21 A2985

The data displayed is for advisory purposes only and is not to be used for flight planning or operations.

This page is not automatically refreshed. Reload the page to see current data.